DAUI

In Salah Airport

In Salah, Algeria
METAR DAUI 190600Z 00000KT 6000 NSC 06/M13 Q1015
Observed Flight Rules
Jan-19 @ 06:00 UTC (an hour ago) Marginal Visual Flight Rules
Wind Visibility Clouds
Calm 6,003 meters
  • Clear skies
Temperatures Readings
Current 6°C / 43°F
Dewpoint -13°C / 9°F
Humidity 24%
Altimeter 29.97" Hg
Pressure 1015 hPa
Elevation 269
METAR DAUI 190600Z 00000KT 6000 NSC 06/M13 Q1015
Observed Flight Rules
Jan-19 @ 06:00 UTC
(an hour ago)
MVFR
Wind Visibility
Calm 6,003 meters
Clouds
  • Clear skies
Temperature Dewpoint
6°C / 43°F -13°C / 9°F
Humidity Altimeter Pressure
24% 29.97" Hg 1015 hPa